Time;durP1;ratioP1;P1;durP2;ratioP2;P2;SDS_P1;SDS_P2;PMS_P1;PMS_P2;Temp;Humidity;BMP_temperature;BMP_pressure;BME280_temperature;BME280_humidity;BME280_pressure;Samples;Min_cycle;Max_cycle;Signal;HPM_P1;HPM_P2
2022/09/23 04:25:21;;;;;;;7.10;4.67;;;;;;;5.48;78.50;100945.18;3471141;78;21006;-89
2022/09/23 04:30:13;;;;;;;7.47;5.03;;;;;;;5.43;78.29;100949.27;3416105;80;21105;-88
2022/09/23 04:35:05;;;;;;;6.80;5.33;;;;;;;5.40;78.58;100954.28;3403217;80;20951;-89
2022/09/23 04:39:57;;;;;;;6.83;4.20;;;;;;;5.40;78.18;100955.19;3406407;80;21074;-89
2022/09/23 04:44:48;;;;;;;5.67;4.35;;;;;;;5.38;78.44;100955.50;3405569;82;21622;-90
2022/09/23 04:49:39;;;;;;;6.55;4.17;;;;;;;5.38;78.37;100956.80;3385072;82;21010;-90
2022/09/23 04:54:31;;;;;;;6.40;4.78;;;;;;;5.35;78.41;100952.41;3422337;81;21010;-90
2022/09/23 04:59:23;;;;;;;7.65;5.20;;;;;;;5.35;78.34;100952.41;3409801;81;21153;-90
2022/09/23 05:04:14;;;;;;;8.55;4.40;;;;;;;5.30;78.41;100946.17;3426148;81;20939;-90
2022/09/23 05:09:07;;;;;;;5.35;4.78;;;;;;;5.30;78.42;100956.48;3414022;81;21736;-89
2022/09/23 05:13:58;;;;;;;9.90;5.30;;;;;;;5.30;78.47;100946.59;3426315;82;21465;-90
2022/09/23 05:18:51;;;;;;;11.63;5.25;;;;;;;5.29;78.43;100951.26;3481915;80;21463;-90
2022/09/23 05:23:53;;;;;;;12.73;5.12;;;;;;;5.29;78.65;100953.84;3456033;80;21091;-89
2022/09/23 05:28:43;;;;;;;12.98;5.45;;;;;;;5.32;78.80;100953.55;3403431;81;21469;-90
2022/09/23 05:33:36;;;;;;;10.30;6.72;;;;;;;5.32;78.96;100953.55;3465045;80;21029;-90
2022/09/23 05:38:28;;;;;;;7.62;4.72;;;;;;;5.37;79.18;100947.31;3525149;80;21471;-90
2022/09/23 05:43:20;;;;;;;11.55;5.20;;;;;;;5.44;79.21;100954.91;3421128;80;20975;-91
2022/09/23 05:48:11;;;;;;;8.20;5.55;;;;;;;5.50;79.39;100959.02;3369429;81;21651;-90
2022/09/23 05:53:02;;;;;;;10.93;5.75;;;;;;;5.63;79.88;100963.84;3377935;80;21445;-91
2022/09/23 05:57:53;;;;;;;8.13;5.53;;;;;;;5.73;79.94;100963.41;3432656;80;21044;-90
2022/09/23 06:02:48;;;;;;;10.15;7.53;;;;;;;5.84;80.13;100962.97;3449205;80;20990;-91
2022/09/23 06:07:39;;;;;;;11.03;7.75;;;;;;;6.00;80.83;100965.78;3453420;80;21006;-92
2022/09/23 06:12:30;;;;;;;10.00;8.33;;;;;;;6.21;81.58;100967.05;3478847;80;21146;-91
2022/09/23 06:17:21;;;;;;;14.85;8.03;;;;;;;6.46;82.44;100961.98;3378206;81;20979;-90
2022/09/23 06:22:15;;;;;;;10.78;8.48;;;;;;;6.71;82.45;100968.06;3394884;81;21044;-90
2022/09/23 06:27:05;;;;;;;8.85;7.95;;;;;;;6.89;82.45;100954.05;3469784;81;20941;-91
2022/09/23 06:31:58;;;;;;;9.13;8.10;;;;;;;7.07;82.89;100955.98;3394243;82;20976;-91
2022/09/23 06:36:50;;;;;;;10.43;8.88;;;;;;;7.29;83.09;100962.77;3420424;82;21052;-91
2022/09/23 06:41:43;;;;;;;11.20;7.65;;;;;;;7.77;83.28;100965.65;3379040;81;20964;-91
2022/09/23 06:46:37;;;;;;;8.60;6.75;;;;;;;8.11;82.68;100962.41;3397622;81;20965;-93
2022/09/23 06:51:28;;;;;;;7.78;6.78;;;;;;;8.20;82.57;100964.41;3405691;81;21587;-89
2022/09/23 06:56:20;;;;;;;8.20;7.30;;;;;;;8.26;82.63;100949.03;3431796;82;21048;-90
2022/09/23 07:01:22;;;;;;;8.23;6.55;;;;;;;8.81;82.28;100959.30;3406228;81;21437;-96
2022/09/23 07:06:16;;;;;;;6.05;5.35;;;;;;;8.81;82.28;100959.30;3443072;78;21018;-90
2022/09/23 07:11:11;;;;;;;6.92;5.33;;;;;;;9.24;82.09;100958.73;3433894;81;20969;-94
2022/09/23 07:16:03;;;;;;;8.23;4.87;;;;;;;9.61;81.59;100951.03;3451016;81;21469;-91
2022/09/23 07:20:58;;;;;;;5.87;4.83;;;;;;;9.92;81.37;100960.42;3377725;80;20956;-90
2022/09/23 07:25:50;;;;;;;5.95;4.55;;;;;;;10.35;80.25;100954.05;3455159;80;22041;-91
2022/09/23 07:30:43;;;;;;;6.70;3.72;;;;;;;10.62;79.65;100957.25;3417380;81;20971;-90
2022/09/23 07:35:41;;;;;;;4.67;3.65;;;;;;;10.68;79.49;100956.06;3420905;80;21011;-89
2022/09/23 07:40:32;;;;;;;3.45;3.10;;;;;;;11.00;78.53;100948.02;3425653;80;21086;-89
2022/09/23 07:45:26;;;;;;;3.42;2.47;;;;;;;12.40;75.78;100944.19;3405601;82;21060;-94
2022/09/23 07:50:17;;;;;;;2.92;2.67;;;;;;;12.88;74.67;100940.42;3370439;82;21099;-90
2022/09/23 07:55:09;;;;;;;2.37;2.17;;;;;;;12.55;74.59;100940.89;3436436;81;21454;-91
2022/09/23 08:00:00;;;;;;;1.70;1.60;;;;;;;12.37;74.73;100939.80;3378264;82;20980;-90
2022/09/23 08:04:53;;;;;;;1.72;1.35;;;;;;;12.28;74.92;100933.59;3396093;78;21464;-89
2022/09/23 08:09:44;;;;;;;2.55;1.20;;;;;;;12.61;73.36;100934.47;3447402;79;21540;-91
2022/09/23 08:14:37;;;;;;;1.62;1.52;;;;;;;12.05;73.23;100928.93;3469683;80;21800;-92
2022/09/23 08:19:28;;;;;;;1.27;1.17;;;;;;;12.45;71.96;100924.27;3558325;79;20994;-93
2022/09/23 08:24:22;;;;;;;1.40;1.05;;;;;;;12.55;71.04;100918.28;3467016;78;20944;-92
2022/09/23 08:29:16;;;;;;;2.25;1.20;;;;;;;12.96;70.28;100921.79;3528433;79;20971;-93
2022/09/23 08:34:09;;;;;;;1.42;0.82;;;;;;;12.78;70.10;100921.16;3495322;80;20971;-93
2022/09/23 08:39:08;;;;;;;4.78;1.32;;;;;;;12.66;69.38;100916.24;3468301;79;21159;-96
2022/09/23 08:44:31;;;;;;;1.45;1.00;;;;;;;12.72;68.65;100912.42;3521283;78;20860;-96
2022/09/23 08:49:38;;;;;;;2.08;1.25;;;;;;;12.78;68.37;100917.25;3563213;79;21048;-96
2022/09/23 08:54:33;;;;;;;1.57;1.10;;;;;;;13.17;67.68;100909.83;3481925;81;20994;-93
2022/09/23 08:59:38;;;;;;;1.40;1.30;;;;;;;13.51;66.80;100908.85;3456038;80;21005;-96
2022/09/23 09:04:43;;;;;;;1.57;1.27;;;;;;;13.36;66.44;100908.30;3396667;80;20958;-96
2022/09/23 09:09:58;;;;;;;0.98;0.80;;;;;;;13.59;65.67;100901.93;3474776;80;21482;-96
2022/09/23 09:15:05;;;;;;;0.90;0.90;;;;;;;13.48;65.09;100900.98;3464264;80;21561;-93
2022/09/23 09:20:06;;;;;;;0.72;0.70;;;;;;;13.66;65.65;100891.10;3485258;80;20983;-96
2022/09/23 09:25:23;;;;;;;2.05;0.80;;;;;;;13.55;65.69;100897.55;3502966;80;21042;-95
2022/09/23 09:30:15;;;;;;;1.67;1.12;;;;;;;13.58;65.21;100894.11;3523002;79;21414;-93
2022/09/23 09:35:21;;;;;;;1.07;0.98;;;;;;;14.00;64.42;100888.70;3420745;80;20999;-93
2022/09/23 09:40:15;;;;;;;1.15;1.05;;;;;;;14.13;63.51;100890.54;3460656;80;21672;-95
2022/09/23 09:45:25;;;;;;;1.00;0.90;;;;;;;14.12;63.99;100883.55;3417008;80;20988;-93
2022/09/23 09:50:44;;;;;;;1.12;1.10;;;;;;;13.99;63.79;100883.92;3451506;80;21489;-94
2022/09/23 09:55:36;;;;;;;1.25;1.15;;;;;;;14.39;63.15;100871.02;3466425;80;21773;-94
2022/09/23 10:00:38;;;;;;;1.52;1.12;;;;;;;17.32;59.45;100867.83;3435640;80;21514;-92
2022/09/23 10:05:47;;;;;;;1.50;1.40;;;;;;;16.54;59.39;100874.44;3434473;80;21049;-94
2022/09/23 10:10:40;;;;;;;2.40;1.35;;;;;;;20.61;54.99;100851.91;3478594;80;20975;-92
2022/09/23 10:15:36;;;;;;;1.30;1.20;;;;;;;20.67;54.92;100851.33;3471075;80;21105;-88
2022/09/23 10:20:37;;;;;;;2.20;1.40;;;;;;;18.37;55.71;100859.73;3492673;80;21263;-90
2022/09/23 10:25:28;;;;;;;1.15;1.10;;;;;;;19.52;54.07;100851.84;3434239;80;21518;-90
2022/09/23 10:30:24;;;;;;;1.22;0.90;;;;;;;22.04;49.65;100834.63;3427208;80;20995;-91
2022/09/23 10:35:23;;;;;;;1.70;0.90;;;;;;;22.74;50.31;100827.28;3395458;82;21071;-89
2022/09/23 10:50:58;;;;;;;1.32;0.98;;;;;;;20.05;51.04;100827.11;3473283;78;21387;-89
2022/09/23 10:56:07;;;;;;;4.75;1.10;;;;;;;21.39;48.93;100826.69;3471252;79;21010;-87
2022/09/23 11:01:29;;;;;;;1.12;1.00;;;;;;;20.02;49.36;100833.34;3530143;79;20959;-91
2022/09/23 11:06:43;;;;;;;2.15;1.00;;;;;;;19.18;50.56;100839.69;3491673;79;20957;-94
2022/09/23 11:12:01;;;;;;;5.08;1.35;;;;;;;22.44;47.96;100828.17;3507022;79;21543;-90
2022/09/23 11:17:29;;;;;;;1.62;1.20;;;;;;;23.97;45.26;100821.32;3535277;78;20962;-89
2022/09/23 11:22:58;;;;;;;2.17;1.35;;;;;;;23.70;45.18;100817.00;3570147;77;20954;-88
2022/09/23 11:28:03;;;;;;;1.07;1.00;;;;;;;24.32;43.67;100810.27;3583093;78;20959;-88
2022/09/23 11:33:37;;;;;;;1.00;0.90;;;;;;;23.83;43.25;100811.67;3609054;77;21009;-88
2022/09/23 11:38:45;;;;;;;1.30;1.20;;;;;;;23.54;43.57;100814.89;3613862;77;21141;-88
2022/09/23 11:43:40;;;;;;;1.00;0.90;;;;;;;22.98;42.93;100803.06;3581546;77;20979;-96
2022/09/23 11:48:42;;;;;;;1.30;1.20;;;;;;;21.50;44.90;100804.84;3603222;77;21549;-88
2022/09/23 11:54:00;;;;;;;1.00;0.90;;;;;;;21.40;44.81;100800.66;3615194;77;21024;-92
2022/09/23 11:59:03;;;;;;;0.85;0.85;;;;;;;21.48;46.20;100790.76;3540746;79;20982;-92
2022/09/23 12:04:20;;;;;;;2.87;1.00;;;;;;;21.20;44.86;100788.83;3553174;79;21142;-92
2022/09/23 12:09:24;;;;;;;1.05;1.00;;;;;;;20.50;45.00;100783.48;3564997;79;20973;-93
2022/09/23 12:14:20;;;;;;;1.22;1.15;;;;;;;19.77;46.26;100786.80;3506077;79;20990;-95
2022/09/23 12:19:37;;;;;;;3.23;1.30;;;;;;;18.70;46.79;100792.13;3528190;79;21085;-91
2022/09/23 12:24:55;;;;;;;1.32;0.85;;;;;;;18.15;47.46;100783.25;3562121;79;22120;-91
2022/09/23 12:29:52;;;;;;;1.30;1.20;;;;;;;17.78;48.15;100772.72;3467814;81;22379;-92
2022/09/23 12:34:47;;;;;;;11.33;1.10;;;;;;;18.12;47.72;100769.70;3452326;80;21097;-92
2022/09/23 12:39:39;;;;;;;1.53;1.07;;;;;;;18.14;49.33;100769.23;3426122;80;20966;-90
2022/09/23 12:44:42;;;;;;;0.70;0.70;;;;;;;18.24;48.23;100766.91;3448984;80;21010;-89
2022/09/23 12:49:36;;;;;;;3.12;1.92;;;;;;;17.95;48.29;100763.33;3461438;80;21002;-90
2022/09/23 12:54:28;;;;;;;1.30;1.20;;;;;;;17.53;49.33;100757.23;3415709;80;21014;-94
2022/09/23 12:59:30;;;;;;;1.07;0.98;;;;;;;18.08;49.17;100758.77;3333481;83;21564;-88
2022/09/23 13:09:50;;;;;;;0.80;0.80;;;;;;;17.98;48.68;100749.29;3500821;79;21653;-96
2022/09/23 13:14:45;;;;;;;1.95;1.00;;;;;;;17.36;48.35;100747.33;3512392;79;21013;-96
2022/09/23 13:19:43;;;;;;;1.70;0.80;;;;;;;17.03;48.77;100749.87;3526066;79;21939;-96
2022/09/23 13:24:53;;;;;;;1.20;1.10;;;;;;;16.86;48.78;100745.61;3491671;79;21045;-95
2022/09/23 13:30:08;;;;;;;1.07;0.85;;;;;;;16.98;49.68;100736.77;3489788;79;20872;-94
2022/09/23 13:35:14;;;;;;;0.82;0.72;;;;;;;17.53;49.58;100732.25;3511867;79;20982;-96
2022/09/23 13:40:29;;;;;;;0.88;0.88;;;;;;;17.76;49.03;100724.55;3499963;79;20971;-89
2022/09/23 13:45:23;;;;;;;1.22;0.70;;;;;;;17.80;49.27;100718.34;3458691;79;21564;-90
2022/09/23 13:50:23;;;;;;;2.15;0.90;;;;;;;17.90;48.73;100725.27;3472343;79;21018;-96
2022/09/23 13:55:29;;;;;;;0.80;0.80;;;;;;;18.12;48.03;100717.08;3507334;78;20959;-94
2022/09/23 14:00:22;;;;;;;1.00;0.95;;;;;;;17.98;47.46;100712.00;3445467;79;21009;-96
2022/09/23 14:05:26;;;;;;;1.95;1.75;;;;;;;17.30;47.17;100713.25;3450610;79;21057;-94
2022/09/23 14:10:22;;;;;;;1.25;1.15;;;;;;;17.47;47.93;100710.42;3534699;77;21061;-88
2022/09/23 14:15:17;;;;;;;1.05;0.90;;;;;;;17.52;47.38;100706.84;3465348;79;20955;-90
2022/09/23 14:20:17;;;;;;;2.25;0.90;;;;;;;17.00;47.23;100703.47;3487927;79;20951;-89
2022/09/23 14:25:17;;;;;;;1.57;1.32;;;;;;;16.54;48.29;100715.23;3518816;79;20935;-92
2022/09/23 14:30:19;;;;;;;3.50;1.80;;;;;;;16.60;48.12;100701.18;3492023;79;20959;-92
2022/09/23 14:35:19;;;;;;;1.57;1.47;;;;;;;16.54;48.55;100699.48;3450206;79;20979;-93
2022/09/23 14:40:36;;;;;;;1.87;1.67;;;;;;;16.33;49.24;100697.87;3516870;79;20939;-92
2022/09/23 14:45:33;;;;;;;2.58;2.35;;;;;;;16.35;49.45;100690.86;3521909;79;21476;-92
2022/09/23 14:50:45;;;;;;;6.67;2.62;;;;;;;16.29;49.61;100689.58;3494197;79;21525;-91
2022/09/23 14:55:33;;;;;;;1.77;1.20;;;;;;;16.43;49.73;100684.69;3503692;79;20931;-96
2022/09/23 15:00:24;;;;;;;1.27;1.17;;;;;;;15.90;49.14;100689.39;3469680;79;21475;-96
2022/09/23 15:05:22;;;;;;;1.80;1.30;;;;;;;15.44;50.15;100693.06;3472463;79;20944;-96
2022/09/23 15:10:22;;;;;;;3.95;1.70;;;;;;;15.31;50.76;100684.80;3453192;79;20959;-95
2022/09/23 15:15:15;;;;;;;1.37;1.27;;;;;;;15.13;51.61;100680.06;3488220;79;21492;-96
2022/09/23 15:20:20;;;;;;;2.37;1.47;;;;;;;14.89;52.20;100682.72;3483482;79;20975;-96
2022/09/23 15:25:34;;;;;;;1.87;1.60;;;;;;;14.64;53.16;100686.66;3487562;79;21079;-96
2022/09/23 15:30:26;;;;;;;1.45;1.20;;;;;;;14.33;53.60;100690.55;3475025;79;20951;-96
2022/09/23 15:35:26;;;;;;;1.45;1.15;;;;;;;14.10;54.47;100689.20;3466328;79;21072;-96
2022/09/23 15:40:28;;;;;;;2.62;1.00;;;;;;;13.94;54.62;100684.36;3525066;79;20986;-96
2022/09/23 15:45:31;;;;;;;1.30;1.02;;;;;;;13.82;55.38;100680.41;3492599;79;20998;-95
2022/09/23 15:50:22;;;;;;;5.05;1.65;;;;;;;13.66;55.61;100680.34;3505573;79;21689;-95
2022/09/23 15:55:22;;;;;;;6.40;3.17;;;;;;;13.54;56.88;100679.02;3497799;79;20958;-95
2022/09/23 16:00:14;;;;;;;2.00;1.37;;;;;;;13.37;57.47;100680.67;3512360;79;21581;-94
2022/09/23 16:05:21;;;;;;;2.55;1.40;;;;;;;13.18;58.45;100684.47;3508334;78;21496;-96
2022/09/23 16:10:12;;;;;;;2.77;1.17;;;;;;;13.02;58.73;100682.59;3536254;78;21017;-95
2022/09/23 16:15:04;;;;;;;6.35;1.80;;;;;;;12.84;59.18;100685.55;3485214;79;21081;-95
2022/09/23 16:19:55;;;;;;;7.55;2.12;;;;;;;12.69;59.90;100690.64;3491512;79;20981;-94
2022/09/23 16:24:46;;;;;;;5.42;3.20;;;;;;;12.51;60.53;100687.02;3489485;79;20954;-95
2022/09/23 16:29:37;;;;;;;3.15;2.15;;;;;;;12.37;60.86;100696.45;3484968;79;20947;-94
2022/09/23 16:34:28;;;;;;;6.50;1.77;;;;;;;12.24;61.17;100692.85;3473629;79;20962;-95
2022/09/23 16:39:21;;;;;;;10.00;4.60;;;;;;;12.10;61.50;100690.10;3445626;79;20920;-94
2022/09/23 16:44:16;;;;;;;18.15;9.28;;;;;;;11.94;61.95;100693.41;3461211;79;33839;-90
2022/09/23 16:49:10;;;;;;;16.67;9.50;;;;;;;11.78;62.37;100700.14;3517576;79;21460;-96
2022/09/23 16:54:01;;;;;;;31.27;16.95;;;;;;;11.61;62.85;100687.80;3499084;79;21515;-96
2022/09/23 16:58:52;;;;;;;37.08;21.65;;;;;;;11.42;63.19;100694.48;3409589;80;20978;-96
2022/09/23 17:03:43;;;;;;;39.00;23.05;;;;;;;11.24;63.57;100692.95;3436096;80;21179;-96
2022/09/23 17:08:34;;;;;;;38.15;22.65;;;;;;;11.09;63.83;100692.72;3429353;80;21476;-96
2022/09/23 17:13:28;;;;;;;32.98;20.15;;;;;;;10.91;64.02;100690.31;3411330;80;20940;-96
2022/09/23 17:18:21;;;;;;;26.40;11.85;;;;;;;10.75;64.36;100688.30;3412376;80;21014;-96
2022/09/23 17:23:13;;;;;;;19.35;12.18;;;;;;;10.58;64.46;100688.91;3424441;80;21002;-96
2022/09/23 17:28:04;;;;;;;22.40;13.62;;;;;;;10.36;64.72;100686.82;3392211;80;21585;-96
2022/09/23 17:32:55;;;;;;;18.23;11.30;;;;;;;10.24;65.03;100680.50;3458600;80;20982;-96
2022/09/23 17:37:46;;;;;;;13.98;10.20;;;;;;;10.14;65.25;100690.30;3503605;80;20944;-96
2022/09/23 17:42:41;;;;;;;21.20;12.15;;;;;;;10.00;65.39;100703.45;3476172;80;21005;-96
2022/09/23 17:47:32;;;;;;;16.82;10.20;;;;;;;9.89;65.71;100698.02;3496996;80;20990;-96
2022/09/23 17:52:23;;;;;;;15.40;10.43;;;;;;;9.79;65.97;100699.58;3475555;80;21066;-96
2022/09/23 17:57:14;;;;;;;13.18;7.92;;;;;;;9.68;66.08;100701.09;3473793;79;20951;-96
2022/09/23 18:02:06;;;;;;;11.00;7.10;;;;;;;9.56;66.45;100693.92;3497708;80;20979;-96
2022/09/23 18:06:57;;;;;;;10.75;6.35;;;;;;;9.49;66.59;100700.69;3520081;80;20928;-96
2022/09/23 18:11:48;;;;;;;12.33;6.45;;;;;;;9.42;66.92;100693.63;3558541;79;20944;-96
2022/09/23 18:16:42;;;;;;;15.13;7.70;;;;;;;9.39;67.14;100700.47;3456692;80;20971;-96
2022/09/23 18:21:39;;;;;;;13.32;6.60;;;;;;;9.28;67.08;100695.05;3458204;80;20976;-96
2022/09/23 18:26:30;;;;;;;7.87;5.57;;;;;;;9.32;67.77;100695.59;3544661;79;21026;-96
2022/09/23 18:31:22;;;;;;;8.25;5.85;;;;;;;9.38;68.02;100704.79;3559919;79;20932;-96
2022/09/23 18:36:15;;;;;;;8.45;5.92;;;;;;;9.45;68.52;100706.67;3554005;78;20996;-95
2022/09/23 18:41:06;;;;;;;11.18;7.97;;;;;;;9.53;68.61;100703.83;3558164;79;21081;-93
2022/09/23 18:46:08;;;;;;;13.25;7.83;;;;;;;9.55;68.80;100706.46;3554450;78;20916;-89
2022/09/23 18:51:00;;;;;;;17.90;11.73;;;;;;;9.59;69.22;100710.00;3558613;79;21452;-90
2022/09/23 18:55:51;;;;;;;21.00;13.60;;;;;;;9.59;69.39;100703.52;3446391;79;20972;-90
2022/09/23 19:00:42;;;;;;;19.67;12.55;;;;;;;9.71;70.10;100709.83;3504965;80;20955;-90
2022/09/23 19:05:33;;;;;;;22.98;12.60;;;;;;;9.71;70.10;100709.83;3517032;80;21034;-90
2022/09/23 19:10:24;;;;;;;15.48;10.53;;;;;;;9.79;70.03;100715.16;3552562;79;21097;-90
2022/09/23 19:15:15;;;;;;;18.27;11.57;;;;;;;9.84;70.32;100708.34;3534263;78;21694;-89
2022/09/23 19:20:08;;;;;;;17.92;11.65;;;;;;;9.90;70.45;100715.37;3558086;78;20916;-89
2022/09/23 19:25:00;;;;;;;19.62;11.75;;;;;;;9.96;70.56;100704.23;3575398;77;21303;-89
2022/09/23 19:29:50;;;;;;;15.95;9.63;;;;;;;9.99;70.50;100709.05;3509586;78;20884;-90
2022/09/23 19:34:42;;;;;;;14.15;8.83;;;;;;;10.00;70.58;100706.05;3561854;78;21086;-90
2022/09/23 19:39:33;;;;;;;12.60;8.25;;;;;;;10.01;70.62;100714.28;3508681;79;20959;-90
2022/09/23 19:44:26;;;;;;;9.53;7.28;;;;;;;9.99;70.87;100715.55;3501028;79;20974;-89
2022/09/23 19:49:17;;;;;;;10.82;7.83;;;;;;;10.01;71.00;100719.48;3516765;80;21022;-90
2022/09/23 19:54:08;;;;;;;13.72;8.38;;;;;;;10.01;71.26;100718.18;3543856;80;21878;-90
2022/09/23 19:59:01;;;;;;;12.93;8.23;;;;;;;10.05;71.43;100714.78;3517242;80;20974;-90
2022/09/23 20:03:53;;;;;;;13.40;8.15;;;;;;;10.07;71.44;100715.72;3573328;79;21078;-90
2022/09/23 20:08:44;;;;;;;16.07;8.45;;;;;;;10.06;71.74;100713.95;3542931;79;20912;-90
2022/09/23 20:13:42;;;;;;;14.05;9.20;;;;;;;10.06;71.75;100723.91;3490781;78;21504;-89
2022/09/23 20:18:36;;;;;;;16.75;10.18;;;;;;;10.06;71.86;100719.14;3537388;79;21290;-90
2022/09/23 20:23:28;;;;;;;13.53;9.58;;;;;;;10.05;72.21;100719.98;3500354;80;20928;-90
2022/09/23 20:28:20;;;;;;;15.28;10.10;;;;;;;10.00;72.29;100712.12;3447037;79;20991;-90
2022/09/23 20:33:15;;;;;;;12.95;9.98;;;;;;;10.01;72.53;100712.98;3491130;79;20968;-89
2022/09/23 20:38:04;;;;;;;12.75;9.60;;;;;;;10.00;72.46;100707.36;3537976;78;20983;-90
2022/09/23 20:42:55;;;;;;;14.85;9.80;;;;;;;9.99;72.54;100702.56;3546596;79;21981;-89
2022/09/23 20:47:46;;;;;;;16.35;10.98;;;;;;;9.93;72.37;100705.92;3492934;79;20959;-94
2022/09/23 20:52:40;;;;;;;14.53;9.50;;;;;;;9.87;72.41;100700.63;3560449;78;22586;-90
2022/09/23 20:57:31;;;;;;;17.27;10.63;;;;;;;9.79;72.40;100703.48;3517763;79;20967;-90
2022/09/23 21:02:24;;;;;;;14.47;10.30;;;;;;;9.71;72.55;100703.73;3500551;78;20975;-90
2022/09/23 21:07:16;;;;;;;17.82;11.95;;;;;;;9.68;72.82;100703.69;3528895;78;21808;-90
2022/09/23 21:12:07;;;;;;;24.98;14.78;;;;;;;9.65;72.93;100699.73;3448421;78;21043;-90
2022/09/23 21:16:58;;;;;;;16.90;12.58;;;;;;;9.63;72.98;100700.12;3446963;78;21000;-90
2022/09/23 21:21:49;;;;;;;14.38;11.15;;;;;;;9.63;72.98;100700.12;3549838;79;21415;-90
2022/09/23 21:26:43;;;;;;;19.15;12.85;;;;;;;9.60;73.06;100694.86;3514493;79;22648;-90
2022/09/23 21:31:37;;;;;;;24.25;15.13;;;;;;;9.51;73.04;100693.84;3546574;79;21265;-91
2022/09/23 21:36:31;;;;;;;26.48;15.45;;;;;;;9.41;73.00;100690.59;3514553;79;20943;-90
2022/09/23 21:41:23;;;;;;;24.12;17.02;;;;;;;9.29;73.13;100694.22;3511211;78;20965;-90
2022/09/23 21:46:18;;;;;;;30.65;19.35;;;;;;;9.20;73.33;100696.61;3515508;78;21386;-89
2022/09/23 21:51:18;;;;;;;23.52;17.23;;;;;;;9.08;73.40;100695.48;3480611;80;20990;-90
2022/09/23 21:56:13;;;;;;;25.82;17.02;;;;;;;8.97;73.31;100697.83;3548630;79;21561;-95
2022/09/23 22:01:11;;;;;;;24.63;15.32;;;;;;;8.82;73.50;100697.87;3471872;78;20999;-95
2022/09/23 22:06:09;;;;;;;24.15;14.55;;;;;;;8.78;73.63;100708.20;3566645;78;20932;-92
2022/09/23 22:11:04;;;;;;;20.80;15.63;;;;;;;8.62;73.71;100704.78;3565211;78;21541;-92
2022/09/23 22:15:55;;;;;;;22.20;13.88;;;;;;;8.62;73.71;100704.78;3528460;78;20975;-91
2022/09/23 22:20:46;;;;;;;19.30;13.90;;;;;;;8.40;73.55;100690.36;3558060;78;20935;-91
2022/09/23 22:25:39;;;;;;;22.77;15.70;;;;;;;8.40;73.55;100690.36;3531894;78;21070;-92
2022/09/23 22:35:40;;;;;;;20.25;14.15;;;;;;;8.22;73.40;100695.95;3560711;79;20913;-92
2022/09/23 22:40:31;;;;;;;19.50;14.07;;;;;;;7.96;73.79;100690.96;3518458;80;21063;-92
2022/09/23 22:45:23;;;;;;;21.33;14.13;;;;;;;7.96;73.79;100690.96;3465476;79;20991;-91
2022/09/23 22:50:14;;;;;;;17.02;12.15;;;;;;;7.82;73.64;100692.30;3525714;79;20967;-92
2022/09/23 22:55:11;;;;;;;14.20;11.70;;;;;;;7.69;73.46;100683.70;3482006;79;21043;-91
2022/09/23 23:00:07;;;;;;;16.35;12.40;;;;;;;7.61;73.59;100684.80;3502658;79;21277;-91
2022/09/23 23:04:59;;;;;;;17.60;12.23;;;;;;;7.55;73.55;100680.33;3469200;79;20945;-91
2022/09/23 23:09:51;;;;;;;17.48;11.18;;;;;;;7.43;73.33;100676.96;3468592;79;21769;-91
2022/09/23 23:14:42;;;;;;;14.65;11.20;;;;;;;7.35;73.64;100677.56;3510151;79;21046;-91
2022/09/23 23:19:35;;;;;;;17.40;12.40;;;;;;;7.29;73.68;100668.34;3474436;79;20935;-92
2022/09/23 23:24:26;;;;;;;17.60;12.37;;;;;;;7.23;73.67;100664.74;3485649;79;21047;-91
2022/09/23 23:29:20;;;;;;;16.00;12.13;;;;;;;7.16;73.73;100664.09;3472575;79;20980;-91
2022/09/23 23:34:16;;;;;;;15.48;11.70;;;;;;;7.11;73.72;100664.37;3537240;79;21937;-91
2022/09/23 23:39:07;;;;;;;16.48;11.53;;;;;;;7.01;73.85;100667.50;3488014;78;20975;-91
2022/09/23 23:44:00;;;;;;;18.05;13.25;;;;;;;6.93;73.60;100668.99;3504916;80;20975;-91
2022/09/23 23:48:53;;;;;;;14.68;11.50;;;;;;;6.87;73.82;100665.38;3493014;78;21620;-91
2022/09/23 23:53:44;;;;;;;16.62;12.20;;;;;;;6.83;73.72;100663.94;3542012;78;20932;-91
2022/09/23 23:58:36;;;;;;;16.05;12.07;;;;;;;6.76;73.73;100665.47;3498904;80;20936;-91
